Time;durP1;ratioP1;P1;durP2;ratioP2;P2;SDS_P1;SDS_P2;PMS_P1;PMS_P2;Temp;Humidity;BMP_temperature;BMP_pressure;BME280_temperature;BME280_humidity;BME280_pressure;Samples;Min_cycle;Max_cycle;Signal;HPM_P1;HPM_P2
2023/03/03 00:01:31;;;;;;;19.50;13.53;;;0.60;99.90;;;;;;5057611;28;20283;-71
2023/03/03 00:03:57;;;;;;;19.40;13.60;;;0.60;99.90;;;;;;5058354;28;20212;-71
2023/03/03 00:06:23;;;;;;;18.23;13.20;;;0.60;99.90;;;;;;5057817;28;20304;-70
2023/03/03 00:08:49;;;;;;;19.20;13.33;;;0.60;99.90;;;;;;5056103;28;20290;-70
2023/03/03 00:11:15;;;;;;;19.70;13.73;;;0.60;99.90;;;;;;5058580;28;20237;-69
2023/03/03 00:13:49;;;;;;;18.77;13.80;;;0.50;99.90;;;;;;5058564;28;20219;-69
2023/03/03 00:16:36;;;;;;;22.70;14.33;;;0.40;99.90;;;;;;5057902;28;20215;-67
2023/03/03 00:19:01;;;;;;;18.67;12.53;;;0.30;99.90;;;;;;5053796;28;20239;-68
2023/03/03 00:21:30;;;;;;;18.70;12.50;;;0.40;99.90;;;;;;5057677;28;20349;-68
2023/03/03 00:24:13;;;;;;;20.87;13.50;;;0.30;99.90;;;;;;5055276;28;20214;-70
2023/03/03 00:26:40;;;;;;;17.77;13.47;;;0.30;99.90;;;;;;5056341;28;20196;-72
2023/03/03 00:29:30;;;;;;;18.43;12.70;;;0.30;99.90;;;;;;5057157;28;20200;-72
2023/03/03 00:32:11;;;;;;;21.87;14.53;;;0.40;99.90;;;;;;5054706;28;20198;-67
2023/03/03 00:34:36;;;;;;;17.53;12.67;;;0.50;99.90;;;;;;5056073;28;20208;-66
2023/03/03 00:37:02;;;;;;;22.17;14.00;;;0.40;99.90;;;;;;5058287;28;20211;-66
2023/03/03 00:39:34;;;;;;;20.17;14.47;;;0.50;99.90;;;;;;5057514;28;20328;-66
2023/03/03 00:42:03;;;;;;;20.00;14.53;;;0.30;99.90;;;;;;5054110;28;20195;-68
2023/03/03 00:44:41;;;;;;;21.93;13.07;;;0.30;99.90;;;;;;5057447;28;20287;-69
2023/03/03 00:47:25;;;;;;;21.27;13.87;;;0.30;99.90;;;;;;5056114;28;20355;-67
2023/03/03 00:49:52;;;;;;;20.50;13.50;;;0.30;99.90;;;;;;5057634;28;20222;-67
2023/03/03 00:52:18;;;;;;;19.17;13.50;;;0.30;99.90;;;;;;5055305;28;20194;-67
2023/03/03 00:54:45;;;;;;;18.57;13.93;;;0.40;99.90;;;;;;5057585;28;20287;-68
2023/03/03 00:57:14;;;;;;;20.00;14.13;;;0.50;99.90;;;;;;5057385;28;20209;-68
2023/03/03 00:59:40;;;;;;;20.07;13.90;;;0.50;99.90;;;;;;5057531;28;20913;-68
2023/03/03 01:02:05;;;;;;;24.50;14.20;;;0.60;99.90;;;;;;5055440;28;20204;-68
2023/03/03 01:04:31;;;;;;;20.60;14.37;;;0.60;99.90;;;;;;5057293;28;20486;-68
2023/03/03 01:06:56;;;;;;;20.43;13.50;;;0.60;99.90;;;;;;5057336;28;20595;-68
2023/03/03 01:09:22;;;;;;;19.00;13.57;;;0.60;99.90;;;;;;5057172;28;20770;-68
2023/03/03 01:11:49;;;;;;;19.60;13.07;;;0.60;99.90;;;;;;5057448;28;20189;-68
2023/03/03 01:14:14;;;;;;;17.43;14.20;;;0.70;99.90;;;;;;5056932;28;20578;-68
2023/03/03 01:16:40;;;;;;;19.57;13.33;;;0.60;99.90;;;;;;5055191;28;20210;-69
2023/03/03 01:19:06;;;;;;;20.13;14.13;;;0.60;99.90;;;;;;5057255;28;20548;-68
2023/03/03 01:21:32;;;;;;;18.83;13.57;;;0.40;99.90;;;;;;5056582;28;20208;-69
2023/03/03 01:23:57;;;;;;;20.70;13.03;;;0.40;99.90;;;;;;5056707;28;20235;-68
2023/03/03 01:26:23;;;;;;;18.63;12.70;;;0.20;99.90;;;;;;5056940;28;20256;-67
2023/03/03 01:28:48;;;;;;;18.60;12.47;;;0.20;99.90;;;;;;5054911;28;20742;-70
2023/03/03 01:31:14;;;;;;;19.77;12.63;;;0.20;99.90;;;;;;5057065;28;20205;-69
2023/03/03 01:33:39;;;;;;;18.63;14.07;;;0.20;99.90;;;;;;5057005;28;20208;-68
2023/03/03 01:36:06;;;;;;;17.70;11.97;;;0.30;99.90;;;;;;5056889;28;20208;-68
2023/03/03 01:38:35;;;;;;;19.50;12.33;;;0.40;99.90;;;;;;5057056;28;20216;-67
2023/03/03 01:41:01;;;;;;;20.67;13.90;;;0.40;99.90;;;;;;5053360;28;20212;-69
2023/03/03 01:43:28;;;;;;;19.63;14.07;;;0.20;99.90;;;;;;5056842;28;20220;-67
2023/03/03 01:45:56;;;;;;;17.57;13.83;;;0.20;99.90;;;;;;5057101;28;20211;-68
2023/03/03 01:48:31;;;;;;;17.40;13.40;;;0.20;99.90;;;;;;5056874;28;20235;-68
2023/03/03 01:51:01;;;;;;;18.53;12.77;;;0.20;99.90;;;;;;5053304;28;20203;-67
2023/03/03 01:53:35;;;;;;;16.57;11.73;;;0.10;99.90;;;;;;5056660;28;20632;-67
2023/03/03 01:56:02;;;;;;;17.63;12.63;;;0.10;99.90;;;;;;5054364;28;20205;-67
2023/03/03 01:58:33;;;;;;;19.30;13.90;;;-0.10;99.90;;;;;;5056537;28;20590;-67
2023/03/03 02:01:06;;;;;;;18.97;13.03;;;-0.10;99.90;;;;;;5056385;28;20237;-67
2023/03/03 02:03:33;;;;;;;23.03;14.57;;;-0.10;99.90;;;;;;5054657;28;20585;-68
2023/03/03 02:06:03;;;;;;;20.97;13.80;;;-0.10;99.90;;;;;;5056534;28;20211;-67
2023/03/03 02:08:39;;;;;;;23.63;14.30;;;-0.20;99.90;;;;;;5056354;28;20222;-67
2023/03/03 02:11:05;;;;;;;19.50;14.03;;;-0.20;99.90;;;;;;5054205;28;20199;-68
2023/03/03 02:13:31;;;;;;;22.47;14.97;;;-0.20;99.90;;;;;;5056046;28;20214;-67
2023/03/03 02:15:57;;;;;;;21.20;14.53;;;-0.10;99.90;;;;;;5056091;28;20189;-67
2023/03/03 02:18:23;;;;;;;21.97;14.00;;;-0.10;99.90;;;;;;5056056;28;20213;-67
2023/03/03 02:21:11;;;;;;;20.90;14.47;;;-0.20;99.90;;;;;;5056466;28;20234;-68
2023/03/03 02:24:07;;;;;;;20.13;14.70;;;-0.10;99.90;;;;;;5053936;28;20225;-68
2023/03/03 02:26:37;;;;;;;21.63;15.17;;;-0.10;99.90;;;;;;5053902;28;20196;-68
2023/03/03 02:29:03;;;;;;;20.33;14.40;;;0.00;99.90;;;;;;5054778;28;20260;-68
2023/03/03 02:31:30;;;;;;;20.30;13.80;;;-0.10;99.90;;;;;;5055997;28;20208;-69
2023/03/03 02:33:57;;;;;;;20.30;15.13;;;-0.10;99.90;;;;;;5056229;28;20209;-68
2023/03/03 02:36:28;;;;;;;22.87;13.87;;;-0.10;99.90;;;;;;5055891;28;20253;-69
2023/03/03 02:39:08;;;;;;;19.97;13.13;;;-0.10;99.90;;;;;;5054050;28;20208;-70
2023/03/03 02:41:54;;;;;;;18.70;14.47;;;-0.10;99.90;;;;;;5056049;28;20236;-68
2023/03/03 02:44:26;;;;;;;20.50;14.73;;;0.00;99.90;;;;;;5051704;28;20228;-69
2023/03/03 02:46:54;;;;;;;25.17;15.10;;;-0.20;99.90;;;;;;5055808;28;20687;-69
2023/03/03 02:49:22;;;;;;;19.33;13.77;;;-0.20;99.90;;;;;;5053623;28;20578;-69
2023/03/03 02:51:48;;;;;;;23.33;15.00;;;-0.10;99.90;;;;;;5055933;28;20222;-69
2023/03/03 02:54:16;;;;;;;23.27;13.90;;;0.00;99.90;;;;;;5055969;28;20275;-69
2023/03/03 02:56:42;;;;;;;24.13;15.73;;;0.00;99.90;;;;;;5055710;28;20283;-70
2023/03/03 02:59:08;;;;;;;23.47;16.03;;;-0.10;99.90;;;;;;5056041;28;20208;-69
2023/03/03 03:01:35;;;;;;;17.77;13.33;;;-0.20;99.90;;;;;;5053581;28;20218;-69
2023/03/03 03:04:15;;;;;;;20.87;15.10;;;-0.20;99.90;;;;;;5055751;28;20299;-68
2023/03/03 03:06:42;;;;;;;24.37;16.53;;;-0.20;99.90;;;;;;5055534;28;20290;-68
2023/03/03 03:09:08;;;;;;;23.43;14.40;;;-0.20;99.90;;;;;;5053521;28;20671;-68
2023/03/03 03:11:35;;;;;;;24.23;15.70;;;-0.20;99.90;;;;;;5055717;28;20319;-68
2023/03/03 03:14:04;;;;;;;25.00;14.53;;;-0.20;99.90;;;;;;5055718;28;20259;-69
2023/03/03 03:16:30;;;;;;;20.30;14.67;;;-0.40;99.90;;;;;;5055610;28;20588;-68
2023/03/03 03:18:56;;;;;;;20.27;13.90;;;-0.40;99.90;;;;;;5055639;28;20336;-69
2023/03/03 03:21:22;;;;;;;21.30;14.23;;;-0.50;99.90;;;;;;5053343;28;20246;-68
2023/03/03 03:23:48;;;;;;;21.03;14.83;;;-0.40;99.90;;;;;;5055099;28;20220;-69
2023/03/03 03:26:14;;;;;;;21.47;14.00;;;-0.40;99.90;;;;;;5055281;28;20196;-68
2023/03/03 03:28:39;;;;;;;25.67;17.03;;;-0.40;99.90;;;;;;5055534;28;20631;-68
2023/03/03 03:31:06;;;;;;;23.27;14.47;;;-0.30;99.90;;;;;;5056225;28;20200;-68
2023/03/03 03:33:32;;;;;;;23.87;15.67;;;-0.30;99.90;;;;;;5053934;28;20209;-68
2023/03/03 03:35:58;;;;;;;23.23;15.93;;;-0.40;99.90;;;;;;5056660;28;21532;-68
2023/03/03 03:38:26;;;;;;;22.57;15.63;;;-0.40;99.90;;;;;;5054419;28;20294;-68
2023/03/03 03:40:52;;;;;;;24.73;16.33;;;-0.40;99.90;;;;;;5053371;28;20726;-67
2023/03/03 03:43:17;;;;;;;24.20;15.73;;;-0.40;99.90;;;;;;5055031;28;20236;-68
2023/03/03 03:45:43;;;;;;;22.87;15.50;;;-0.50;99.90;;;;;;5055442;28;20204;-68
2023/03/03 03:48:09;;;;;;;23.70;15.70;;;-0.50;99.90;;;;;;5055470;28;20221;-68
2023/03/03 03:50:35;;;;;;;22.73;13.53;;;-0.50;99.90;;;;;;5056001;28;20212;-67
2023/03/03 03:53:01;;;;;;;20.80;14.60;;;-0.50;99.90;;;;;;5059358;28;20268;-68
2023/03/03 03:55:27;;;;;;;24.43;15.03;;;-0.50;99.90;;;;;;5056548;28;20265;-68
2023/03/03 03:57:54;;;;;;;20.93;14.23;;;-0.50;99.90;;;;;;5058638;28;20212;-68
2023/03/03 04:00:20;;;;;;;22.40;13.17;;;-0.50;99.90;;;;;;5058535;28;20195;-68
2023/03/03 04:02:45;;;;;;;18.57;11.37;;;-0.50;99.90;;;;;;5059031;28;20568;-69
2023/03/03 04:05:11;;;;;;;16.10;10.77;;;-0.60;99.90;;;;;;5058814;28;20193;-65
2023/03/03 04:07:36;;;;;;;18.90;11.17;;;-0.70;99.90;;;;;;5058611;28;20204;-66
2023/03/03 04:10:03;;;;;;;19.30;11.43;;;-0.70;99.90;;;;;;5057007;28;20202;-66
2023/03/03 04:12:28;;;;;;;20.37;12.20;;;-0.70;99.90;;;;;;5058643;28;20694;-65
2023/03/03 04:14:54;;;;;;;19.27;13.93;;;-0.60;99.90;;;;;;5059133;28;20208;-65
2023/03/03 04:17:21;;;;;;;20.50;13.33;;;-0.70;99.90;;;;;;5058392;28;20289;-65
2023/03/03 04:19:47;;;;;;;20.73;13.80;;;-0.70;99.90;;;;;;5058980;28;20277;-65
2023/03/03 04:22:14;;;;;;;23.60;14.77;;;-0.70;99.90;;;;;;5056198;28;20576;-65
2023/03/03 04:24:40;;;;;;;26.90;15.50;;;-0.60;99.90;;;;;;5058266;28;20219;-65
2023/03/03 04:27:08;;;;;;;26.80;14.90;;;-0.50;99.90;;;;;;5058794;28;20228;-65
2023/03/03 04:29:34;;;;;;;28.17;17.13;;;-0.40;99.90;;;;;;5058471;28;20362;-65
2023/03/03 04:32:00;;;;;;;23.17;15.53;;;-0.30;99.90;;;;;;5056656;28;20197;-66
2023/03/03 04:34:26;;;;;;;26.90;15.37;;;-0.30;99.90;;;;;;5057946;28;20691;-65
2023/03/03 04:36:51;;;;;;;25.07;15.23;;;-0.40;99.90;;;;;;5058108;28;20287;-65
2023/03/03 04:39:17;;;;;;;27.07;14.87;;;-0.50;99.90;;;;;;5058195;28;20195;-69
2023/03/03 04:41:42;;;;;;;23.10;14.13;;;-0.60;99.90;;;;;;5057490;28;20204;-67
2023/03/03 04:44:08;;;;;;;24.63;13.27;;;-0.70;99.90;;;;;;5057047;28;20298;-67
2023/03/03 04:46:34;;;;;;;26.57;15.87;;;-0.70;99.90;;;;;;5052927;28;20257;-68
2023/03/03 04:48:59;;;;;;;24.37;14.00;;;-0.60;99.90;;;;;;5057533;28;20205;-69
2023/03/03 04:51:24;;;;;;;24.50;16.53;;;-0.50;99.90;;;;;;5057715;28;20219;-68
2023/03/03 04:53:50;;;;;;;32.83;17.43;;;-0.50;99.90;;;;;;5057780;28;20204;-68
2023/03/03 04:56:15;;;;;;;28.80;16.23;;;-0.40;99.90;;;;;;5057405;28;20292;-67
2023/03/03 04:58:41;;;;;;;29.37;17.70;;;-0.40;99.90;;;;;;5057558;28;20198;-69
2023/03/03 05:01:06;;;;;;;24.80;15.27;;;-0.30;99.90;;;;;;5054196;28;20572;-69
2023/03/03 05:03:32;;;;;;;28.60;16.73;;;-0.20;99.90;;;;;;5057397;28;20215;-67
2023/03/03 05:05:57;;;;;;;24.77;16.60;;;-0.30;99.90;;;;;;5057375;28;20195;-67
2023/03/03 05:08:23;;;;;;;30.93;16.90;;;-0.40;99.90;;;;;;5057112;28;20289;-67
2023/03/03 05:10:53;;;;;;;35.37;18.37;;;-0.50;99.90;;;;;;5055799;28;20199;-67
2023/03/03 05:13:18;;;;;;;30.20;16.10;;;-0.50;99.90;;;;;;5046900;28;20194;-67
2023/03/03 05:15:51;;;;;;;29.20;15.73;;;-0.60;99.90;;;;;;5052384;28;20276;-67
2023/03/03 05:18:18;;;;;;;33.00;17.83;;;-0.70;99.90;;;;;;5055510;28;20462;-68
2023/03/03 05:20:44;;;;;;;33.63;16.90;;;-0.60;99.90;;;;;;5056921;28;20188;-68
2023/03/03 05:23:09;;;;;;;27.87;18.03;;;-0.70;99.90;;;;;;5055048;28;20222;-67
2023/03/03 05:25:35;;;;;;;30.53;17.07;;;-0.70;99.90;;;;;;5056975;28;20740;-67
2023/03/03 05:28:00;;;;;;;30.90;16.03;;;-0.80;99.90;;;;;;5050496;28;20202;-67
2023/03/03 05:30:26;;;;;;;33.13;15.73;;;-0.80;99.90;;;;;;5053709;28;20213;-67
2023/03/03 05:32:51;;;;;;;29.00;16.30;;;-0.70;99.90;;;;;;5056663;28;20195;-66
2023/03/03 05:35:18;;;;;;;26.10;15.07;;;-0.70;99.90;;;;;;5056908;28;20200;-70
2023/03/03 05:37:46;;;;;;;29.47;15.50;;;-0.70;99.90;;;;;;5056647;28;20233;-68
2023/03/03 05:40:13;;;;;;;27.97;15.67;;;-0.70;99.90;;;;;;5056993;28;20328;-67
2023/03/03 05:42:38;;;;;;;30.07;15.40;;;-0.60;99.90;;;;;;5056095;28;20210;-67
2023/03/03 05:45:04;;;;;;;21.50;14.73;;;-0.60;99.90;;;;;;5056542;28;20273;-68
2023/03/03 05:47:30;;;;;;;20.33;13.03;;;-0.60;99.90;;;;;;5056147;28;20202;-65
2023/03/03 05:49:55;;;;;;;26.43;14.93;;;-0.70;99.90;;;;;;5054758;28;20203;-68
2023/03/03 05:52:23;;;;;;;23.00;13.53;;;-0.70;99.90;;;;;;5056183;28;20206;-68
2023/03/03 05:54:48;;;;;;;24.70;13.27;;;-0.70;99.90;;;;;;5056239;28;20781;-67
2023/03/03 05:57:14;;;;;;;21.17;13.37;;;-0.80;99.90;;;;;;5056268;28;20199;-65
2023/03/03 05:59:39;;;;;;;16.27;11.10;;;-0.80;99.90;;;;;;5056289;28;20204;-66
2023/03/03 06:02:05;;;;;;;20.47;12.73;;;-0.80;99.90;;;;;;5054424;28;20259;-66
2023/03/03 06:04:31;;;;;;;21.63;12.53;;;-0.80;99.90;;;;;;5055874;28;20210;-66
2023/03/03 06:06:56;;;;;;;20.80;12.33;;;-0.90;99.90;;;;;;5051272;28;20468;-67
2023/03/03 06:09:22;;;;;;;21.77;12.60;;;-0.90;99.90;;;;;;5055639;28;20565;-66
2023/03/03 06:11:47;;;;;;;19.67;12.00;;;-0.90;99.90;;;;;;5056303;28;20887;-62
2023/03/03 06:14:13;;;;;;;19.70;13.30;;;-0.90;99.90;;;;;;5055226;28;20188;-68
2023/03/03 06:16:38;;;;;;;21.73;12.47;;;-1.00;99.90;;;;;;5057488;28;20199;-67
2023/03/03 06:19:04;;;;;;;25.70;13.83;;;-1.00;99.90;;;;;;5063128;28;20649;-68
2023/03/03 06:21:29;;;;;;;26.00;14.80;;;-1.00;99.90;;;;;;5062977;28;20215;-68
2023/03/03 06:23:55;;;;;;;25.40;14.13;;;-0.90;99.90;;;;;;5063252;28;20237;-67
2023/03/03 06:26:21;;;;;;;24.27;14.73;;;-0.80;99.90;;;;;;5063157;28;20229;-69
2023/03/03 06:28:47;;;;;;;22.40;13.83;;;-0.70;99.90;;;;;;5062755;28;20183;-67
2023/03/03 06:31:12;;;;;;;21.13;12.70;;;-0.70;99.90;;;;;;5062329;28;20382;-68
2023/03/03 06:33:38;;;;;;;21.97;12.67;;;-0.60;99.90;;;;;;5062205;28;20175;-69
2023/03/03 06:36:03;;;;;;;23.90;13.00;;;-0.70;99.90;;;;;;5062581;28;20194;-69
2023/03/03 06:38:29;;;;;;;28.20;14.87;;;-0.80;99.90;;;;;;5063358;28;20183;-69
2023/03/03 06:40:54;;;;;;;23.33;13.17;;;-0.80;99.90;;;;;;5063825;28;20626;-69
2023/03/03 06:43:20;;;;;;;20.63;12.50;;;-0.90;99.90;;;;;;5063020;28;20224;-68
2023/03/03 06:45:45;;;;;;;27.83;14.63;;;-0.80;99.90;;;;;;5063326;28;20173;-68
2023/03/03 06:48:11;;;;;;;27.50;15.27;;;-0.80;99.90;;;;;;5062696;28;20175;-68
2023/03/03 06:50:38;;;;;;;29.57;15.00;;;-0.90;99.90;;;;;;5063174;28;20179;-71
2023/03/03 06:53:17;;;;;;;31.30;16.53;;;-0.80;99.90;;;;;;5063723;28;20194;-69
2023/03/03 06:55:44;;;;;;;28.83;14.87;;;-0.80;99.90;;;;;;5062994;28;20179;-69
2023/03/03 06:58:16;;;;;;;30.43;15.27;;;-0.70;99.90;;;;;;5063584;28;20183;-65
2023/03/03 07:00:44;;;;;;;29.53;16.57;;;-0.70;99.90;;;;;;5063050;28;20186;-65
2023/03/03 07:03:22;;;;;;;36.10;16.13;;;-0.60;99.90;;;;;;5063066;28;20239;-66
2023/03/03 07:05:48;;;;;;;28.20;15.23;;;-0.50;99.90;;;;;;5058290;28;20676;-69
2023/03/03 07:08:19;;;;;;;24.50;14.50;;;-0.60;99.90;;;;;;5061982;28;20173;-69
2023/03/03 07:10:46;;;;;;;29.20;14.63;;;-0.50;99.90;;;;;;5059991;28;20177;-68
2023/03/03 07:13:31;;;;;;;30.37;15.53;;;-0.50;99.90;;;;;;5062873;28;20172;-68
2023/03/03 07:16:08;;;;;;;24.87;13.50;;;-0.40;99.90;;;;;;5062946;28;20465;-68
2023/03/03 07:18:51;;;;;;;28.70;14.90;;;-0.40;99.90;;;;;;5062608;28;20208;-68
2023/03/03 07:21:32;;;;;;;26.40;13.97;;;-0.50;99.90;;;;;;5063063;28;20188;-68
2023/03/03 07:24:00;;;;;;;23.30;13.27;;;-0.40;99.90;;;;;;5061112;28;20636;-66
2023/03/03 07:26:31;;;;;;;24.90;15.53;;;-0.50;99.90;;;;;;5063910;28;20534;-66
2023/03/03 07:29:05;;;;;;;31.57;13.80;;;-0.50;99.90;;;;;;5065933;28;20262;-69
2023/03/03 07:31:35;;;;;;;27.47;15.13;;;-0.40;99.90;;;;;;5065287;28;20176;-67
2023/03/03 07:34:13;;;;;;;25.70;16.00;;;-0.40;99.90;;;;;;5063395;28;20513;-66
2023/03/03 07:36:39;;;;;;;29.80;15.60;;;-0.40;99.90;;;;;;5061125;28;20186;-67
2023/03/03 07:39:24;;;;;;;24.73;13.83;;;-0.30;99.90;;;;;;5057770;28;20203;-69
2023/03/03 07:41:50;;;;;;;23.33;13.50;;;-0.10;99.90;;;;;;5055720;28;20553;-68
2023/03/03 07:44:35;;;;;;;22.47;13.70;;;-0.10;99.90;;;;;;5056956;28;20231;-66
2023/03/03 07:47:15;;;;;;;25.90;12.10;;;-0.10;99.90;;;;;;5056951;28;20476;-66
2023/03/03 07:49:42;;;;;;;21.13;12.33;;;-0.10;99.90;;;;;;5055146;28;20410;-66
2023/03/03 07:52:38;;;;;;;23.27;12.97;;;-0.20;99.90;;;;;;5057075;28;20216;-67
2023/03/03 07:55:32;;;;;;;23.37;11.93;;;-0.30;99.90;;;;;;5055631;28;20543;-66
2023/03/03 07:58:11;;;;;;;22.20;13.57;;;-0.40;99.90;;;;;;5057434;28;20209;-69
2023/03/03 08:01:15;;;;;;;24.13;12.10;;;-0.40;99.90;;;;;;5057780;28;20416;-68
2023/03/03 08:03:44;;;;;;;23.30;13.03;;;-0.40;99.90;;;;;;5057510;28;20725;-67
2023/03/03 08:06:43;;;;;;;20.53;11.87;;;-0.30;99.90;;;;;;5058094;28;20406;-67
2023/03/03 08:09:08;;;;;;;23.97;12.77;;;-0.30;99.90;;;;;;5057857;28;20245;-67
2023/03/03 08:11:34;;;;;;;27.00;13.60;;;-0.20;99.90;;;;;;5055507;28;20204;-70
2023/03/03 08:14:00;;;;;;;24.37;13.77;;;0.00;99.90;;;;;;5058048;28;20666;-69
2023/03/03 08:16:37;;;;;;;24.27;11.97;;;-0.10;99.90;;;;;;5057843;28;20289;-67
2023/03/03 08:19:04;;;;;;;22.00;12.10;;;-0.10;99.90;;;;;;5055756;28;20673;-68
2023/03/03 08:21:31;;;;;;;16.37;11.13;;;-0.10;99.90;;;;;;5057551;28;20209;-68
2023/03/03 08:23:56;;;;;;;19.43;11.33;;;-0.10;99.90;;;;;;5057630;28;20713;-68
2023/03/03 08:26:23;;;;;;;23.00;12.93;;;0.00;99.90;;;;;;5057347;28;20192;-68
2023/03/03 08:28:49;;;;;;;21.67;12.50;;;0.10;99.90;;;;;;5057838;28;20190;-68
2023/03/03 08:31:16;;;;;;;20.57;11.83;;;0.30;99.90;;;;;;5055538;28;20248;-68
2023/03/03 08:33:42;;;;;;;16.93;10.93;;;0.50;99.90;;;;;;5057076;28;20660;-68
2023/03/03 08:36:08;;;;;;;20.90;11.43;;;0.50;99.90;;;;;;5055344;28;20721;-70
2023/03/03 08:38:34;;;;;;;21.37;13.40;;;0.40;99.90;;;;;;5057190;28;20225;-64
2023/03/03 08:40:59;;;;;;;23.37;12.30;;;0.30;99.90;;;;;;5057150;28;20360;-68
2023/03/03 08:43:25;;;;;;;27.30;16.43;;;0.40;99.90;;;;;;5055391;28;20228;-69
2023/03/03 08:45:53;;;;;;;27.60;15.43;;;0.50;99.90;;;;;;5057375;28;20719;-65
2023/03/03 08:48:19;;;;;;;20.63;14.00;;;0.50;99.90;;;;;;5057440;28;20549;-67
2023/03/03 08:50:45;;;;;;;23.50;13.80;;;0.50;99.90;;;;;;5056260;28;20201;-66
2023/03/03 08:53:12;;;;;;;22.17;12.97;;;0.50;99.90;;;;;;5057164;28;20198;-67
2023/03/03 08:55:39;;;;;;;30.47;17.10;;;0.40;99.90;;;;;;5057000;28;20208;-67
2023/03/03 08:58:04;;;;;;;30.37;18.43;;;0.40;99.90;;;;;;5057441;28;20779;-67
2023/03/03 09:00:30;;;;;;;36.23;18.50;;;0.60;99.90;;;;;;5056639;28;20647;-68
2023/03/03 09:02:55;;;;;;;29.73;17.40;;;0.50;99.90;;;;;;5056058;28;20629;-67
2023/03/03 09:05:22;;;;;;;26.87;16.40;;;0.60;99.90;;;;;;5057101;28;20195;-66
2023/03/03 09:07:48;;;;;;;26.37;15.47;;;0.80;99.90;;;;;;5057012;28;20207;-65
2023/03/03 09:10:26;;;;;;;21.30;12.47;;;1.00;99.90;;;;;;5057228;28;20282;-64
2023/03/03 09:12:52;;;;;;;21.37;14.80;;;1.00;99.90;;;;;;5057042;28;20202;-65
2023/03/03 09:15:21;;;;;;;29.63;16.87;;;1.10;99.90;;;;;;5057128;28;20566;-65
2023/03/03 09:17:47;;;;;;;18.17;12.10;;;1.20;99.90;;;;;;5056953;28;20287;-67
2023/03/03 09:20:22;;;;;;;24.53;14.37;;;1.20;99.90;;;;;;5056629;28;20609;-65
2023/03/03 09:22:49;;;;;;;23.50;13.30;;;1.20;99.90;;;;;;5056403;28;20723;-65
2023/03/03 09:25:30;;;;;;;23.33;14.50;;;1.20;99.90;;;;;;5056326;28;20757;-67
2023/03/03 09:27:56;;;;;;;28.17;16.70;;;1.30;99.90;;;;;;5053979;28;20202;-67
2023/03/03 09:30:24;;;;;;;20.80;13.27;;;1.40;99.90;;;;;;5056497;28;20558;-67
2023/03/03 09:32:50;;;;;;;19.93;12.17;;;1.50;99.90;;;;;;5055688;28;21642;-68
2023/03/03 09:35:36;;;;;;;23.63;13.90;;;1.40;99.90;;;;;;5056744;28;20578;-66
2023/03/03 09:38:29;;;;;;;20.93;11.20;;;1.30;99.90;;;;;;5056067;28;20355;-66
2023/03/03 09:41:24;;;;;;;17.17;10.97;;;1.30;99.90;;;;;;5055450;28;20213;-64
2023/03/03 09:44:04;;;;;;;17.43;10.47;;;1.50;99.90;;;;;;5052173;28;20271;-64
2023/03/03 09:46:54;;;;;;;25.97;16.90;;;1.60;99.90;;;;;;5053445;28;20200;-64
2023/03/03 09:50:04;;;;;;;20.93;12.70;;;1.70;99.90;;;;;;5055594;28;20204;-64
2023/03/03 09:52:37;;;;;;;22.23;12.77;;;1.70;99.90;;;;;;5003767;28;20195;-64
2023/03/03 09:55:22;;;;;;;17.17;10.70;;;1.70;99.90;;;;;;5046542;28;20205;-63
2023/03/03 09:58:13;;;;;;;22.63;12.03;;;1.70;99.90;;;;;;5055670;28;20202;-63
2023/03/03 10:00:58;;;;;;;18.43;12.43;;;1.80;99.90;;;;;;5047664;28;20203;-64
2023/03/03 10:03:52;;;;;;;20.17;13.33;;;1.70;99.90;;;;;;5050918;28;20217;-64
2023/03/03 10:06:25;;;;;;;19.20;11.67;;;1.60;99.90;;;;;;5051005;28;20205;-64
2023/03/03 10:09:16;;;;;;;23.30;13.37;;;1.60;99.90;;;;;;5051216;28;20249;-63
2023/03/03 10:12:15;;;;;;;20.90;12.30;;;1.70;99.90;;;;;;5050626;28;20216;-64
2023/03/03 10:15:08;;;;;;;26.43;15.70;;;1.70;99.90;;;;;;5050543;28;20292;-63
2023/03/03 10:17:51;;;;;;;17.20;11.93;;;1.60;99.90;;;;;;5053809;28;20255;-64
2023/03/03 10:20:36;;;;;;;22.70;14.33;;;2.00;99.90;;;;;;5051925;28;20936;-69
2023/03/03 10:23:19;;;;;;;21.00;13.77;;;1.80;99.90;;;;;;5052641;28;20217;-69
2023/03/03 10:25:56;;;;;;;25.00;14.57;;;1.40;99.90;;;;;;5051788;28;20727;-70
2023/03/03 10:28:44;;;;;;;19.03;12.90;;;1.50;99.90;;;;;;5053589;28;20283;-70
2023/03/03 10:31:32;;;;;;;17.63;11.43;;;1.60;99.90;;;;;;5052500;28;20282;-70
2023/03/03 10:34:38;;;;;;;16.50;11.87;;;1.80;99.90;;;;;;5053828;28;20190;-69
2023/03/03 10:37:25;;;;;;;15.97;9.47;;;2.10;99.90;;;;;;5052802;28;20221;-70
2023/03/03 10:40:09;;;;;;;18.37;11.53;;;2.20;99.90;;;;;;5053475;28;20204;-71
2023/03/03 10:43:09;;;;;;;17.43;10.60;;;2.10;99.90;;;;;;5051697;28;21014;-75
2023/03/03 10:46:06;;;;;;;19.60;11.70;;;2.30;99.90;;;;;;5057378;28;20200;-84
2023/03/03 10:48:57;;;;;;;16.53;11.37;;;2.50;99.90;;;;;;5055298;28;20272;-85
2023/03/03 10:51:29;;;;;;;17.17;11.77;;;2.50;99.90;;;;;;5058998;28;20197;-83
2023/03/03 10:54:07;;;;;;;19.23;11.10;;;2.50;99.90;;;;;;5058352;28;20555;-85
2023/03/03 10:56:43;;;;;;;19.63;11.90;;;2.40;99.90;;;;;;5059365;28;20193;-79
2023/03/03 10:59:33;;;;;;;20.80;13.30;;;2.20;99.90;;;;;;5058212;28;20197;-81
2023/03/03 11:02:15;;;;;;;20.27;10.43;;;2.20;99.90;;;;;;5060428;28;20539;-81
2023/03/03 11:04:41;;;;;;;25.30;13.40;;;2.30;99.90;;;;;;5062324;28;20780;-81
2023/03/03 11:07:09;;;;;;;23.30;13.00;;;2.30;99.90;;;;;;5065436;28;20283;-78
2023/03/03 11:09:50;;;;;;;26.17;15.13;;;2.50;99.90;;;;;;5063860;28;20211;-83
2023/03/03 11:12:37;;;;;;;27.60;15.03;;;2.60;99.90;;;;;;5061962;28;20211;-80
2023/03/03 11:15:29;;;;;;;21.47;13.90;;;2.80;99.90;;;;;;5067728;28;20199;-84
2023/03/03 11:18:05;;;;;;;25.67;14.83;;;2.70;99.90;;;;;;5057874;28;20200;-78
2023/03/03 11:21:09;;;;;;;22.93;13.47;;;2.60;99.90;;;;;;5067362;28;20697;-79
2023/03/03 11:24:00;;;;;;;23.43;13.57;;;2.50;99.90;;;;;;5060594;28;20301;-80
2023/03/03 11:26:48;;;;;;;21.27;12.07;;;2.60;99.90;;;;;;5066263;28;20197;-78
2023/03/03 11:29:28;;;;;;;28.10;14.17;;;2.70;99.90;;;;;;5064766;28;20844;-80
2023/03/03 11:32:21;;;;;;;25.63;15.70;;;2.70;99.90;;;;;;5062056;28;20193;-79
2023/03/03 11:35:11;;;;;;;28.37;16.57;;;2.80;99.90;;;;;;5064474;28;20199;-81
2023/03/03 11:38:23;;;;;;;28.50;18.10;;;2.90;99.90;;;;;;5068340;28;20658;-81
2023/03/03 11:40:55;;;;;;;25.33;13.30;;;3.10;99.90;;;;;;4977704;28;20259;-81
2023/03/03 11:43:36;;;;;;;26.67;14.30;;;3.00;99.90;;;;;;5045624;28;20548;-77
2023/03/03 11:46:10;;;;;;;24.80;14.93;;;3.00;99.90;;;;;;5010558;28;21015;-81
2023/03/03 11:48:39;;;;;;;26.97;15.87;;;3.00;99.90;;;;;;5058017;28;20205;-81
2023/03/03 11:51:14;;;;;;;29.23;15.67;;;2.90;99.90;;;;;;5060030;28;20228;-74
2023/03/03 11:53:55;;;;;;;37.27;22.17;;;3.00;99.90;;;;;;5057709;28;20656;-74
2023/03/03 11:56:33;;;;;;;32.43;19.83;;;2.90;99.90;;;;;;5057407;28;20202;-71
2023/03/03 11:59:04;;;;;;;30.93;18.07;;;2.80;99.90;;;;;;5053554;28;20310;-72
2023/03/03 12:01:40;;;;;;;31.37;19.13;;;2.90;99.90;;;;;;5056562;28;20248;-72
2023/03/03 12:04:14;;;;;;;32.47;18.43;;;2.90;99.90;;;;;;5058271;28;20229;-72
2023/03/03 12:07:03;;;;;;;33.20;19.27;;;3.00;99.90;;;;;;5057571;28;20564;-73
2023/03/03 12:09:39;;;;;;;33.77;17.07;;;3.00;99.90;;;;;;5058110;28;20245;-73
2023/03/03 12:12:26;;;;;;;36.87;19.57;;;3.00;99.90;;;;;;5056015;28;20666;-73
2023/03/03 12:15:10;;;;;;;36.70;22.77;;;3.00;99.90;;;;;;5058445;28;20205;-72
2023/03/03 12:18:03;;;;;;;33.77;18.17;;;3.10;99.90;;;;;;5055756;28;20196;-73
2023/03/03 12:20:42;;;;;;;26.93;15.10;;;3.10;99.90;;;;;;5056528;28;20229;-73
2023/03/03 12:23:36;;;;;;;24.33;14.10;;;3.20;99.90;;;;;;5054098;28;20233;-72
2023/03/03 12:26:12;;;;;;;24.13;15.30;;;3.20;99.90;;;;;;5053930;28;20194;-75
2023/03/03 12:28:53;;;;;;;23.70;14.57;;;3.30;99.90;;;;;;5056875;28;20224;-72
2023/03/03 12:31:37;;;;;;;26.43;14.50;;;3.30;99.90;;;;;;5054405;28;20312;-72
2023/03/03 12:34:31;;;;;;;21.20;13.47;;;3.20;99.90;;;;;;5053122;28;20211;-72
2023/03/03 12:37:14;;;;;;;21.10;12.73;;;3.10;99.90;;;;;;5053583;28;20204;-72
2023/03/03 12:39:54;;;;;;;23.50;14.53;;;3.30;99.90;;;;;;5056083;28;20660;-73
2023/03/03 12:42:58;;;;;;;30.00;16.33;;;3.20;99.90;;;;;;5056489;28;20263;-73
2023/03/03 12:45:59;;;;;;;34.97;20.77;;;3.00;99.90;;;;;;5009055;28;20313;-73
2023/03/03 12:48:42;;;;;;;25.63;16.17;;;3.00;99.90;;;;;;5056687;28;20198;-72
2023/03/03 12:51:32;;;;;;;29.13;18.53;;;2.90;99.90;;;;;;5057350;28;20205;-74
2023/03/03 12:54:17;;;;;;;25.33;16.53;;;2.80;99.90;;;;;;5056424;28;20288;-73
2023/03/03 12:57:26;;;;;;;24.33;15.17;;;2.90;99.90;;;;;;5056780;28;20197;-73
2023/03/03 13:00:23;;;;;;;20.90;14.10;;;3.00;99.90;;;;;;4994307;28;20230;-74
2023/03/03 13:02:58;;;;;;;26.10;16.10;;;3.20;99.90;;;;;;5054962;28;20563;-74